Terminal Aerodrome Forecast
Issued by NWS

Home | Current Version | Previous Version | Text Only | Print | Product List | Glossary On
Versions: 1 2 3 4 5 6 7 8 9 10 11 12 13
000
FTUS45 KFGZ 301100
TAFGCN
TAF
KGCN 301122Z 3012/3112 VRB05KT P6SM SCT200
     FM301800 23012G22KT P6SM BKN200
     FM310200 VRB04KT P6SM FEW250
      AMD NOT SKED=

USA.gov is the U.S. government's official web portal to all federal, state and local government web resources and services.